Airports Austria Linz Hörsching Airport

Linz Hörsching Airport (LOWL / LNZ)

Facts about Linz Hörsching Airport

Name Linz Hörsching Airport
City Linz
Country Austria
ICAO code LOWL
IATA code LNZ
Elevation 298.7040 meters (980 feet)

Weather

METAR

Metar data retrieved Saturday, 20 July 2024 at 00:55 UTC (7 minutes ago)

LOWL 200020Z AUTO 11004KT 9999 NCD 22/16 Q1015

Live traffic

Navigraph Charts (account required)